TCV4711 GVAC-GVAC
Flight info
| Callsign | TCV4711 |
|---|---|
| Flight time | N/A |
| Altitude | 8000 |
| Route | GVBA DCT GVMA DCT GVNP DCT GVSN DCT GVSV |
| Aircraft | C208/L-SDFGR/C |
Departure
| Time | 2026-04-28 17:26 |
|---|---|
| Airport | Amílcar Cabral International Airport (GVAC) |
Arrival
| Time | N/A |
|---|---|
| Airport | Amílcar Cabral International Airport (GVAC) |
| Time | Latitude | Longitude | Altitude | Speed | Heading |
|---|---|---|---|---|---|
| 2026-04-28 17:14 | 16.73171 | -22.94487 | 199 ft | 0 kts | 89° |
| 2026-04-28 17:19 | 16.73175 | -22.94482 | 203 ft | 3 kts | 354° |
| 2026-04-28 17:19 | 16.73173 | -22.94533 | 199 ft | 12 kts | 263° |
| 2026-04-28 17:20 | 16.73151 | -22.94597 | 204 ft | 0 kts | 183° |
| 2026-04-28 17:21 | 16.73121 | -22.94594 | 199 ft | 9 kts | 185° |
| 2026-04-28 17:21 | 16.73076 | -22.94615 | 199 ft | 0 kts | 234° |
| 2026-04-28 17:21 | 16.73075 | -22.94617 | 199 ft | 2 kts | 234° |
| 2026-04-28 17:22 | 16.73063 | -22.94639 | 205 ft | 8 kts | 244° |
| 2026-04-28 17:22 | 16.73040 | -22.94678 | 200 ft | 5 kts | 228° |
| 2026-04-28 17:22 | 16.72970 | -22.94694 | 194 ft | 18 kts | 184° |
| 2026-04-28 17:23 | 16.72687 | -22.94689 | 186 ft | 23 kts | 179° |
| 2026-04-28 17:23 | 16.72512 | -22.94686 | 181 ft | 22 kts | 181° |
| 2026-04-28 17:23 | 16.72407 | -22.94721 | 182 ft | 16 kts | 258° |
| 2026-04-28 17:23 | 16.72404 | -22.94831 | 184 ft | 11 kts | 271° |
| 2026-04-28 17:24 | 16.72414 | -22.94865 | 185 ft | 2 kts | 304° |
| 2026-04-28 17:24 | 16.72440 | -22.94887 | 190 ft | 5 kts | 353° |
| 2026-04-28 17:24 | 16.72521 | -22.94887 | 194 ft | 28 kts | 0° |
| 2026-04-28 17:24 | 16.72873 | -22.94890 | 188 ft | 71 kts | 359° |
| 2026-04-28 17:25 | 16.73458 | -22.94901 | 247 ft | 94 kts | 358° |
| 2026-04-28 17:25 | 16.74880 | -22.94932 | 528 ft | 113 kts | 357° |
| 2026-04-28 17:25 | 16.75702 | -22.94970 | 677 ft | 123 kts | 355° |
| 2026-04-28 17:26 | 16.76529 | -22.95073 | 978 ft | 119 kts | 354° |
| 2026-04-28 17:26 | 16.77352 | -22.95122 | 1250 ft | 119 kts | 355° |
| 2026-04-28 17:26 | 16.78189 | -22.95171 | 1507 ft | 119 kts | 355° |
| 2026-04-28 17:26 | 16.79013 | -22.95217 | 1762 ft | 119 kts | 355° |
| 2026-04-28 17:27 | 16.79842 | -22.95264 | 1907 ft | 128 kts | 355° |
| 2026-04-28 17:27 | 16.80752 | -22.95013 | 1875 ft | 145 kts | 27° |
| 2026-04-28 17:27 | 16.81650 | -22.94493 | 1974 ft | 148 kts | 36° |
| 2026-04-28 17:27 | 16.82148 | -22.93585 | 2043 ft | 148 kts | 86° |
| 2026-04-28 17:28 | 16.81798 | -22.92614 | 2114 ft | 147 kts | 137° |
| 2026-04-28 17:28 | 16.79873 | -22.92137 | 2295 ft | 145 kts | 174° |
| 2026-04-28 17:28 | 16.78877 | -22.92023 | 2364 ft | 145 kts | 174° |
| 2026-04-28 17:29 | 16.77861 | -22.91913 | 2445 ft | 146 kts | 174° |
| 2026-04-28 17:29 | 16.76865 | -22.91803 | 2494 ft | 145 kts | 174° |
| 2026-04-28 17:29 | 16.75855 | -22.91694 | 2499 ft | 149 kts | 174° |
| 2026-04-28 17:30 | 16.73760 | -22.91471 | 2502 ft | 152 kts | 175° |
| 2026-04-28 17:30 | 16.71707 | -22.91248 | 2690 ft | 147 kts | 174° |
| 2026-04-28 17:30 | 16.70692 | -22.91139 | 2819 ft | 147 kts | 174° |
| 2026-04-28 17:31 | 16.69680 | -22.91032 | 2941 ft | 147 kts | 175° |
| 2026-04-28 17:31 | 16.67660 | -22.90811 | 3183 ft | 144 kts | 174° |
| 2026-04-28 17:32 | 16.65670 | -22.90591 | 3431 ft | 144 kts | 174° |
| 2026-04-28 17:32 | 16.64672 | -22.90485 | 3554 ft | 144 kts | 174° |
| 2026-04-28 17:32 | 16.63664 | -22.90378 | 3680 ft | 145 kts | 174° |
| 2026-04-28 17:32 | 16.62651 | -22.90267 | 3803 ft | 145 kts | 174° |
| 2026-04-28 17:33 | 16.61654 | -22.90160 | 3926 ft | 144 kts | 174° |
| 2026-04-28 17:33 | 16.60665 | -22.90056 | 4048 ft | 143 kts | 175° |
| 2026-04-28 17:33 | 16.59676 | -22.89945 | 4179 ft | 146 kts | 174° |
| 2026-04-28 17:33 | 16.58999 | -22.89870 | 4256 ft | 145 kts | 174° |
| 2026-04-28 17:34 | 16.57663 | -22.89726 | 4421 ft | 143 kts | 174° |
| 2026-04-28 17:34 | 16.56667 | -22.89617 | 4494 ft | 146 kts | 174° |
| 2026-04-28 17:34 | 16.55647 | -22.89507 | 4499 ft | 151 kts | 174° |
| 2026-04-28 17:34 | 16.54585 | -22.89393 | 4508 ft | 155 kts | 174° |
| 2026-04-28 17:35 | 16.53510 | -22.89279 | 4510 ft | 157 kts | 174° |
| 2026-04-28 17:35 | 16.52421 | -22.89162 | 4510 ft | 157 kts | 174° |
| 2026-04-28 17:35 | 16.51341 | -22.89046 | 4509 ft | 157 kts | 174° |
| 2026-04-28 17:35 | 16.50249 | -22.88929 | 4509 ft | 157 kts | 174° |
| 2026-04-28 17:36 | 16.49171 | -22.88813 | 4509 ft | 157 kts | 174° |
| 2026-04-28 17:36 | 16.48083 | -22.88712 | 4508 ft | 157 kts | 179° |
| 2026-04-28 17:36 | 16.46984 | -22.88734 | 4508 ft | 157 kts | 181° |
| 2026-04-28 17:36 | 16.45902 | -22.88697 | 4509 ft | 157 kts | 177° |
| 2026-04-28 17:37 | 16.44813 | -22.88641 | 4509 ft | 157 kts | 177° |
| 2026-04-28 17:37 | 16.43716 | -22.88583 | 4509 ft | 157 kts | 178° |
| 2026-04-28 17:37 | 16.42633 | -22.88527 | 4509 ft | 157 kts | 177° |
| 2026-04-28 17:37 | 16.41528 | -22.88469 | 4509 ft | 157 kts | 178° |
| 2026-04-28 17:38 | 16.40440 | -22.88413 | 4509 ft | 157 kts | 178° |
| 2026-04-28 17:38 | 16.39352 | -22.88356 | 4508 ft | 157 kts | 177° |
| 2026-04-28 17:38 | 16.38262 | -22.88298 | 4507 ft | 156 kts | 178° |
| 2026-04-28 17:38 | 16.37182 | -22.88241 | 4505 ft | 156 kts | 178° |
| 2026-04-28 17:39 | 16.36104 | -22.88185 | 4504 ft | 156 kts | 178° |
| 2026-04-28 17:39 | 16.35022 | -22.88128 | 4504 ft | 155 kts | 177° |
| 2026-04-28 17:39 | 16.32805 | -22.88012 | 4273 ft | 162 kts | 178° |
| 2026-04-28 17:40 | 16.31672 | -22.87953 | 4147 ft | 161 kts | 178° |
| 2026-04-28 17:40 | 16.30567 | -22.87894 | 4022 ft | 159 kts | 177° |
| 2026-04-28 17:40 | 16.29463 | -22.87836 | 3894 ft | 158 kts | 177° |
| 2026-04-28 17:40 | 16.28358 | -22.87778 | 3765 ft | 157 kts | 178° |
| 2026-04-28 17:41 | 16.27283 | -22.87792 | 3636 ft | 156 kts | 182° |
| 2026-04-28 17:41 | 16.26199 | -22.87832 | 3514 ft | 155 kts | 182° |
| 2026-04-28 17:41 | 16.25118 | -22.87874 | 3387 ft | 155 kts | 182° |
| 2026-04-28 17:41 | 16.24052 | -22.87915 | 3260 ft | 155 kts | 182° |
| 2026-04-28 17:42 | 16.22968 | -22.87956 | 3135 ft | 155 kts | 182° |
| 2026-04-28 17:42 | 16.22249 | -22.87984 | 3049 ft | 154 kts | 182° |
| 2026-04-28 17:42 | 16.20849 | -22.88037 | 2878 ft | 150 kts | 182° |
| 2026-04-28 17:42 | 16.19830 | -22.88077 | 2741 ft | 143 kts | 182° |
| 2026-04-28 17:43 | 16.18850 | -22.88145 | 2595 ft | 139 kts | 191° |
| 2026-04-28 17:43 | 16.17940 | -22.88419 | 2460 ft | 135 kts | 198° |
| 2026-04-28 17:43 | 16.17051 | -22.88747 | 2331 ft | 135 kts | 200° |
| 2026-04-28 17:43 | 16.16170 | -22.89085 | 2197 ft | 135 kts | 200° |
| 2026-04-28 17:44 | 16.15289 | -22.89423 | 2075 ft | 135 kts | 200° |
| 2026-04-28 17:44 | 16.14404 | -22.89765 | 1950 ft | 137 kts | 200° |
| 2026-04-28 17:44 | 16.13541 | -22.90098 | 1817 ft | 128 kts | 201° |
| 2026-04-28 17:44 | 16.12745 | -22.90405 | 1684 ft | 116 kts | 200° |
| 2026-04-28 17:45 | 16.11991 | -22.90692 | 1571 ft | 114 kts | 200° |
| 2026-04-28 17:45 | 16.11241 | -22.90813 | 1500 ft | 110 kts | 159° |
| 2026-04-28 17:45 | 16.10981 | -22.90125 | 1293 ft | 119 kts | 70° |
| 2026-04-28 17:45 | 16.11560 | -22.89537 | 966 ft | 123 kts | 21° |
| 2026-04-28 17:46 | 16.12365 | -22.89293 | 680 ft | 111 kts | 14° |
| 2026-04-28 17:46 | 16.13103 | -22.89062 | 258 ft | 112 kts | 16° |
| 2026-04-28 17:46 | 16.13802 | -22.88847 | 71 ft | 95 kts | 15° |
| 2026-04-28 17:46 | 16.14346 | -22.88670 | 61 ft | 65 kts | 18° |
| 2026-04-28 17:47 | 16.14609 | -22.88588 | 61 ft | 18 kts | 347° |
| 2026-04-28 17:47 | 16.14585 | -22.88615 | 59 ft | 10 kts | 184° |
| 2026-04-28 17:47 | 16.14451 | -22.88638 | 61 ft | 26 kts | 195° |
| 2026-04-28 17:47 | 16.14387 | -22.88658 | 57 ft | 30 kts | 197° |
| 2026-04-28 17:48 | 16.13996 | -22.88783 | 59 ft | 41 kts | 197° |
| 2026-04-28 17:48 | 16.13716 | -22.88866 | 61 ft | 38 kts | 195° |
| 2026-04-28 17:48 | 16.13607 | -22.88937 | 57 ft | 13 kts | 284° |
| 2026-04-28 17:48 | 16.13642 | -22.89048 | 57 ft | 15 kts | 306° |
| 2026-04-28 17:49 | 16.13645 | -22.89079 | 54 ft | 0 kts | 101° |
| 2026-04-28 17:52 | 16.13641 | -22.89063 | 55 ft | 6 kts | 105° |
| 2026-04-28 17:52 | 16.13496 | -22.89036 | 57 ft | 17 kts | 182° |
| 2026-04-28 17:53 | 16.13454 | -22.88970 | 59 ft | 11 kts | 119° |
| 2026-04-28 17:53 | 16.13355 | -22.88978 | 55 ft | 21 kts | 196° |
| 2026-04-28 17:53 | 16.13187 | -22.89028 | 58 ft | 28 kts | 196° |
| 2026-04-28 17:53 | 16.12987 | -22.89091 | 60 ft | 30 kts | 199° |
| 2026-04-28 17:54 | 16.12867 | -22.89169 | 64 ft | 13 kts | 175° |
| 2026-04-28 17:54 | 16.12884 | -22.89123 | 64 ft | 15 kts | 18° |
| 2026-04-28 17:54 | 16.13096 | -22.89057 | 59 ft | 54 kts | 16° |
| 2026-04-28 17:54 | 16.13585 | -22.88908 | 79 ft | 87 kts | 16° |
| 2026-04-28 17:55 | 16.14201 | -22.88731 | 230 ft | 93 kts | 14° |
| 2026-04-28 17:55 | 16.14814 | -22.88594 | 441 ft | 93 kts | 8° |
| 2026-04-28 17:55 | 16.15499 | -22.88472 | 528 ft | 109 kts | 6° |
| 2026-04-28 17:55 | 16.16283 | -22.88407 | 736 ft | 112 kts | 0° |
| 2026-04-28 17:56 | 16.17071 | -22.88440 | 916 ft | 118 kts | 347° |
| 2026-04-28 17:56 | 16.17597 | -22.88975 | 1128 ft | 116 kts | 271° |
| 2026-04-28 17:56 | 16.17167 | -22.89613 | 1344 ft | 116 kts | 194° |
| 2026-04-28 17:56 | 16.16362 | -22.89726 | 1559 ft | 118 kts | 191° |
| 2026-04-28 17:57 | 16.15546 | -22.89905 | 1774 ft | 123 kts | 192° |
| 2026-04-28 17:57 | 16.14697 | -22.90067 | 1961 ft | 126 kts | 188° |
| 2026-04-28 17:57 | 16.13816 | -22.90178 | 2161 ft | 129 kts | 187° |
| 2026-04-28 17:57 | 16.12941 | -22.90381 | 2351 ft | 131 kts | 200° |
| 2026-04-28 17:58 | 16.12077 | -22.90722 | 2538 ft | 135 kts | 200° |
| 2026-04-28 17:58 | 16.11192 | -22.91073 | 2721 ft | 138 kts | 200° |
| 2026-04-28 17:58 | 16.10282 | -22.91425 | 2904 ft | 140 kts | 200° |
| 2026-04-28 17:58 | 16.09368 | -22.91773 | 3085 ft | 140 kts | 200° |
| 2026-04-28 17:59 | 16.08452 | -22.92127 | 3262 ft | 140 kts | 200° |
| 2026-04-28 17:59 | 16.07537 | -22.92478 | 3435 ft | 140 kts | 200° |
| 2026-04-28 17:59 | 16.06633 | -22.92826 | 3607 ft | 138 kts | 200° |
| 2026-04-28 17:59 | 16.05728 | -22.93176 | 3781 ft | 138 kts | 200° |
| 2026-04-28 18:00 | 16.04830 | -22.93520 | 3952 ft | 138 kts | 200° |
| 2026-04-28 18:00 | 16.03941 | -22.93862 | 4126 ft | 137 kts | 200° |
| 2026-04-28 18:00 | 16.03036 | -22.94209 | 4299 ft | 137 kts | 200° |
| 2026-04-28 18:00 | 16.02154 | -22.94548 | 4469 ft | 137 kts | 200° |
| 2026-04-28 18:01 | 16.01248 | -22.94896 | 4647 ft | 138 kts | 200° |
| 2026-04-28 18:01 | 16.00356 | -22.95240 | 4822 ft | 137 kts | 195° |
| 2026-04-28 18:01 | 15.99417 | -22.95189 | 4988 ft | 136 kts | 175° |
| 2026-04-28 18:01 | 15.98494 | -22.95345 | 5155 ft | 135 kts | 204° |
| 2026-04-28 18:02 | 15.97636 | -22.95718 | 5335 ft | 134 kts | 203° |
| 2026-04-28 18:02 | 15.96784 | -22.96120 | 5494 ft | 135 kts | 204° |
| 2026-04-28 18:02 | 15.95901 | -22.96551 | 5503 ft | 144 kts | 206° |
| 2026-04-28 18:02 | 15.94974 | -22.97019 | 5508 ft | 149 kts | 206° |
| 2026-04-28 18:03 | 15.94039 | -22.97495 | 5511 ft | 151 kts | 206° |
| 2026-04-28 18:03 | 15.93097 | -22.97974 | 5508 ft | 152 kts | 206° |
| 2026-04-28 18:03 | 15.92140 | -22.98461 | 5509 ft | 153 kts | 206° |
| 2026-04-28 18:03 | 15.91176 | -22.98951 | 5508 ft | 154 kts | 206° |
| 2026-04-28 18:04 | 15.90217 | -22.99439 | 5509 ft | 154 kts | 206° |
| 2026-04-28 18:04 | 15.89263 | -22.99924 | 5508 ft | 154 kts | 206° |
| 2026-04-28 18:04 | 15.88299 | -23.00415 | 5509 ft | 154 kts | 206° |
| 2026-04-28 18:04 | 15.87327 | -23.00908 | 5509 ft | 154 kts | 206° |
| 2026-04-28 18:05 | 15.86371 | -23.01395 | 5509 ft | 154 kts | 206° |
| 2026-04-28 18:05 | 15.85728 | -23.01721 | 5509 ft | 154 kts | 206° |
| 2026-04-28 18:05 | 15.84433 | -23.02380 | 5509 ft | 154 kts | 206° |
| 2026-04-28 18:05 | 15.83473 | -23.02869 | 5509 ft | 155 kts | 206° |
| 2026-04-28 18:06 | 15.82512 | -23.03357 | 5509 ft | 155 kts | 206° |
| 2026-04-28 18:06 | 15.81536 | -23.03853 | 5509 ft | 155 kts | 206° |
| 2026-04-28 18:06 | 15.80575 | -23.04341 | 5509 ft | 155 kts | 206° |
| 2026-04-28 18:06 | 15.79609 | -23.04833 | 5509 ft | 155 kts | 206° |
| 2026-04-28 18:07 | 15.78647 | -23.05321 | 5509 ft | 155 kts | 206° |
| 2026-04-28 18:07 | 15.77671 | -23.05817 | 5509 ft | 155 kts | 206° |
| 2026-04-28 18:07 | 15.76713 | -23.06304 | 5509 ft | 155 kts | 206° |
| 2026-04-28 18:07 | 15.75748 | -23.06794 | 5509 ft | 155 kts | 206° |
| 2026-04-28 18:08 | 15.74770 | -23.07291 | 5509 ft | 155 kts | 206° |
| 2026-04-28 18:08 | 15.73799 | -23.07784 | 5508 ft | 155 kts | 206° |
| 2026-04-28 18:08 | 15.72841 | -23.08271 | 5508 ft | 155 kts | 206° |
| 2026-04-28 18:08 | 15.71865 | -23.08766 | 5508 ft | 155 kts | 206° |
| 2026-04-28 18:09 | 15.70894 | -23.09259 | 5508 ft | 155 kts | 206° |
| 2026-04-28 18:09 | 15.69933 | -23.09747 | 5508 ft | 155 kts | 206° |
| 2026-04-28 18:09 | 15.68962 | -23.10240 | 5508 ft | 155 kts | 206° |
| 2026-04-28 18:09 | 15.67990 | -23.10734 | 5508 ft | 155 kts | 206° |
| 2026-04-28 18:10 | 15.67020 | -23.11226 | 5508 ft | 155 kts | 206° |
| 2026-04-28 18:10 | 15.66047 | -23.11720 | 5507 ft | 155 kts | 206° |
| 2026-04-28 18:10 | 15.65088 | -23.12207 | 5507 ft | 155 kts | 206° |
| 2026-04-28 18:10 | 15.64115 | -23.12700 | 5507 ft | 155 kts | 206° |
| 2026-04-28 18:11 | 15.63148 | -23.13191 | 5507 ft | 155 kts | 206° |
| 2026-04-28 18:11 | 15.62170 | -23.13686 | 5507 ft | 155 kts | 206° |
| 2026-04-28 18:11 | 15.61199 | -23.14180 | 5507 ft | 155 kts | 206° |
| 2026-04-28 18:11 | 15.60238 | -23.14666 | 5507 ft | 155 kts | 206° |
| 2026-04-28 18:12 | 15.59261 | -23.15163 | 5507 ft | 155 kts | 206° |
| 2026-04-28 18:12 | 15.58298 | -23.15651 | 5507 ft | 155 kts | 206° |
| 2026-04-28 18:12 | 15.57329 | -23.16142 | 5506 ft | 155 kts | 206° |
| 2026-04-28 18:12 | 15.56351 | -23.16638 | 5506 ft | 155 kts | 206° |
| 2026-04-28 18:13 | 15.55385 | -23.17127 | 5506 ft | 155 kts | 206° |
| 2026-04-28 18:13 | 15.54416 | -23.17619 | 5506 ft | 155 kts | 206° |
| 2026-04-28 18:13 | 15.53444 | -23.18111 | 5506 ft | 155 kts | 206° |
| 2026-04-28 18:13 | 15.52473 | -23.18604 | 5506 ft | 155 kts | 206° |
| 2026-04-28 18:14 | 15.51494 | -23.19100 | 5505 ft | 155 kts | 206° |
| 2026-04-28 18:14 | 15.50530 | -23.19588 | 5505 ft | 155 kts | 206° |
| 2026-04-28 18:14 | 15.49562 | -23.20079 | 5505 ft | 155 kts | 206° |
| 2026-04-28 18:14 | 15.48550 | -23.20477 | 5506 ft | 155 kts | 191° |
| 2026-04-28 18:15 | 15.47477 | -23.20637 | 5420 ft | 159 kts | 188° |
| 2026-04-28 18:15 | 15.46365 | -23.20799 | 5296 ft | 160 kts | 188° |
| 2026-04-28 18:15 | 15.45259 | -23.20959 | 5180 ft | 161 kts | 188° |
| 2026-04-28 18:15 | 15.44141 | -23.21068 | 5052 ft | 162 kts | 183° |
| 2026-04-28 18:16 | 15.43023 | -23.21126 | 4929 ft | 162 kts | 183° |
| 2026-04-28 18:16 | 15.41897 | -23.21184 | 4806 ft | 162 kts | 183° |
| 2026-04-28 18:16 | 15.40760 | -23.21242 | 4680 ft | 162 kts | 183° |
| 2026-04-28 18:16 | 15.39628 | -23.21299 | 4560 ft | 162 kts | 183° |
| 2026-04-28 18:17 | 15.38501 | -23.21357 | 4431 ft | 162 kts | 183° |
| 2026-04-28 18:17 | 15.37384 | -23.21414 | 4308 ft | 162 kts | 183° |
| 2026-04-28 18:17 | 15.36249 | -23.21472 | 4182 ft | 162 kts | 183° |
| 2026-04-28 18:17 | 15.35128 | -23.21530 | 4058 ft | 162 kts | 183° |
| 2026-04-28 18:18 | 15.33988 | -23.21588 | 3932 ft | 162 kts | 183° |
| 2026-04-28 18:18 | 15.32870 | -23.21645 | 3808 ft | 162 kts | 183° |
| 2026-04-28 18:18 | 15.31739 | -23.21702 | 3681 ft | 161 kts | 183° |
| 2026-04-28 18:18 | 15.30999 | -23.21740 | 3590 ft | 158 kts | 183° |
| 2026-04-28 18:19 | 15.29557 | -23.21811 | 3424 ft | 156 kts | 183° |
| 2026-04-28 18:19 | 15.28469 | -23.21865 | 3294 ft | 155 kts | 183° |
| 2026-04-28 18:19 | 15.27404 | -23.21919 | 3169 ft | 154 kts | 183° |
| 2026-04-28 18:19 | 15.26319 | -23.21974 | 3046 ft | 156 kts | 183° |
| 2026-04-28 18:20 | 15.25238 | -23.22028 | 2919 ft | 156 kts | 183° |
| 2026-04-28 18:20 | 15.24163 | -23.22081 | 2794 ft | 155 kts | 183° |
| 2026-04-28 18:20 | 15.23086 | -23.22134 | 2669 ft | 155 kts | 183° |
| 2026-04-28 18:20 | 15.21998 | -23.22188 | 2547 ft | 155 kts | 184° |
| 2026-04-28 18:21 | 15.20915 | -23.22299 | 2424 ft | 158 kts | 188° |
| 2026-04-28 18:21 | 15.19853 | -23.22449 | 2300 ft | 151 kts | 188° |
| 2026-04-28 18:21 | 15.18827 | -23.22592 | 2158 ft | 146 kts | 188° |
| 2026-04-28 18:21 | 15.17837 | -23.22730 | 2029 ft | 143 kts | 188° |
| 2026-04-28 18:22 | 15.16858 | -23.22870 | 1885 ft | 136 kts | 188° |
| 2026-04-28 18:22 | 15.15962 | -23.22999 | 1729 ft | 124 kts | 188° |
| 2026-04-28 18:22 | 15.15165 | -23.23107 | 1612 ft | 112 kts | 188° |
| 2026-04-28 18:22 | 15.14407 | -23.23211 | 1469 ft | 106 kts | 188° |
| 2026-04-28 18:23 | 15.13698 | -23.23137 | 1332 ft | 104 kts | 150° |
| 2026-04-28 18:23 | 15.13330 | -23.22532 | 1120 ft | 103 kts | 96° |
| 2026-04-28 18:23 | 15.13568 | -23.21910 | 885 ft | 92 kts | 36° |
| 2026-04-28 18:23 | 15.14110 | -23.21573 | 592 ft | 87 kts | 21° |
| 2026-04-28 18:24 | 15.14674 | -23.21405 | 335 ft | 82 kts | 6° |
| 2026-04-28 18:24 | 15.15045 | -23.21393 | 162 ft | 80 kts | 5° |
| 2026-04-28 18:24 | 15.15706 | -23.21368 | 50 ft | 57 kts | 5° |
| 2026-04-28 18:24 | 15.15935 | -23.21348 | 58 ft | 12 kts | 321° |
| 2026-04-28 18:25 | 15.15845 | -23.21362 | 55 ft | 22 kts | 179° |
| 2026-04-28 18:25 | 15.15803 | -23.21434 | 53 ft | 9 kts | 262° |
| 2026-04-28 18:25 | 15.15789 | -23.21472 | 50 ft | 0 kts | 220° |
| 2026-04-28 18:26 | 15.15790 | -23.21450 | 50 ft | 8 kts | 54° |
| 2026-04-28 18:26 | 15.15790 | -23.21371 | 49 ft | 16 kts | 138° |
| 2026-04-28 18:26 | 15.15633 | -23.21372 | 48 ft | 30 kts | 182° |
| 2026-04-28 18:27 | 15.15385 | -23.21383 | 41 ft | 41 kts | 182° |
| 2026-04-28 18:27 | 15.15123 | -23.21394 | 31 ft | 26 kts | 183° |
| 2026-04-28 18:27 | 15.15080 | -23.21387 | 31 ft | 2 kts | 15° |
| 2026-04-28 18:27 | 15.15106 | -23.21386 | 32 ft | 2 kts | 0° |
| 2026-04-28 18:28 | 15.15204 | -23.21380 | 32 ft | 36 kts | 3° |
| 2026-04-28 18:28 | 15.15617 | -23.21364 | 55 ft | 80 kts | 4° |
| 2026-04-28 18:28 | 15.16218 | -23.21411 | 271 ft | 91 kts | 354° |
| 2026-04-28 18:28 | 15.16865 | -23.21512 | 564 ft | 94 kts | 356° |
| 2026-04-28 18:29 | 15.17536 | -23.21633 | 741 ft | 107 kts | 353° |
| 2026-04-28 18:29 | 15.18304 | -23.21830 | 871 ft | 120 kts | 351° |
| 2026-04-28 18:29 | 15.19128 | -23.22134 | 982 ft | 134 kts | 329° |
| 2026-04-28 18:29 | 15.19525 | -23.23021 | 1241 ft | 149 kts | 273° |
| 2026-04-28 18:30 | 15.19255 | -23.24067 | 1503 ft | 152 kts | 244° |
| 2026-04-28 18:30 | 15.19072 | -23.24370 | 1591 ft | 152 kts | 237° |
| 2026-04-28 18:30 | 15.17638 | -23.25363 | 1997 ft | 151 kts | 213° |
| 2026-04-28 18:30 | 15.16876 | -23.26085 | 2242 ft | 147 kts | 223° |
| 2026-04-28 18:31 | 15.16116 | -23.26780 | 2496 ft | 147 kts | 223° |
| 2026-04-28 18:31 | 15.15363 | -23.27502 | 2748 ft | 147 kts | 224° |
| 2026-04-28 18:31 | 15.14622 | -23.28218 | 2990 ft | 147 kts | 224° |
| 2026-04-28 18:31 | 15.13873 | -23.28941 | 3238 ft | 148 kts | 224° |
| 2026-04-28 18:32 | 15.13115 | -23.29674 | 3461 ft | 147 kts | 225° |
| 2026-04-28 18:32 | 15.12347 | -23.30416 | 3472 ft | 155 kts | 224° |
| 2026-04-28 18:32 | 15.11542 | -23.31192 | 3484 ft | 160 kts | 224° |
| 2026-04-28 18:32 | 15.10727 | -23.31980 | 3475 ft | 163 kts | 225° |
| 2026-04-28 18:33 | 15.09892 | -23.32786 | 3475 ft | 164 kts | 225° |
| 2026-04-28 18:33 | 15.09062 | -23.33586 | 3482 ft | 165 kts | 224° |
| 2026-04-28 18:33 | 15.08216 | -23.34401 | 3479 ft | 167 kts | 224° |
| 2026-04-28 18:33 | 15.07364 | -23.35224 | 3450 ft | 168 kts | 224° |
| 2026-04-28 18:34 | 15.06509 | -23.36050 | 3330 ft | 169 kts | 224° |
| 2026-04-28 18:34 | 15.05646 | -23.36880 | 3210 ft | 167 kts | 224° |
| 2026-04-28 18:34 | 15.04834 | -23.37665 | 3070 ft | 155 kts | 225° |
| 2026-04-28 18:34 | 15.04061 | -23.38415 | 2924 ft | 150 kts | 224° |
| 2026-04-28 18:35 | 15.03304 | -23.39143 | 2788 ft | 148 kts | 224° |
| 2026-04-28 18:35 | 15.02548 | -23.39870 | 2655 ft | 147 kts | 225° |
| 2026-04-28 18:35 | 15.01797 | -23.40595 | 2537 ft | 153 kts | 223° |
| 2026-04-28 18:35 | 15.01009 | -23.41351 | 2509 ft | 155 kts | 225° |
| 2026-04-28 18:36 | 15.00208 | -23.42123 | 2506 ft | 157 kts | 225° |
| 2026-04-28 18:36 | 14.99402 | -23.42865 | 2508 ft | 156 kts | 214° |
| 2026-04-28 18:36 | 14.98406 | -23.43363 | 2510 ft | 164 kts | 203° |
| 2026-04-28 18:36 | 14.97364 | -23.43852 | 2512 ft | 165 kts | 204° |
| 2026-04-28 18:37 | 14.96303 | -23.44357 | 2508 ft | 167 kts | 204° |
| 2026-04-28 18:37 | 14.95257 | -23.44850 | 2508 ft | 166 kts | 204° |
| 2026-04-28 18:37 | 14.94188 | -23.45350 | 2509 ft | 167 kts | 204° |
| 2026-04-28 18:37 | 14.93136 | -23.45839 | 2511 ft | 167 kts | 204° |
| 2026-04-28 18:38 | 14.92088 | -23.46330 | 2503 ft | 166 kts | 204° |
| 2026-04-28 18:38 | 14.91033 | -23.46817 | 2504 ft | 165 kts | 203° |
| 2026-04-28 18:38 | 14.90028 | -23.47330 | 2492 ft | 153 kts | 208° |
| 2026-04-28 18:38 | 14.89416 | -23.47663 | 2486 ft | 146 kts | 207° |
| 2026-04-28 18:39 | 14.88269 | -23.48301 | 2493 ft | 136 kts | 208° |
| 2026-04-28 18:39 | 14.87443 | -23.48787 | 2376 ft | 140 kts | 221° |
| 2026-04-28 18:39 | 14.87091 | -23.49336 | 2275 ft | 138 kts | 258° |
| 2026-04-28 18:39 | 14.87478 | -23.50434 | 2104 ft | 124 kts | 322° |
| 2026-04-28 18:40 | 14.87940 | -23.50778 | 2023 ft | 122 kts | 340° |
| 2026-04-28 18:40 | 14.88744 | -23.50807 | 1899 ft | 116 kts | 9° |
| 2026-04-28 18:40 | 14.89492 | -23.50537 | 1780 ft | 112 kts | 28° |
| 2026-04-28 18:40 | 14.90173 | -23.50175 | 1537 ft | 106 kts | 27° |
| 2026-04-28 18:41 | 14.90804 | -23.49884 | 1341 ft | 93 kts | 26° |
| 2026-04-28 18:41 | 14.91353 | -23.49646 | 1211 ft | 80 kts | 22° |
| 2026-04-28 18:41 | 14.91866 | -23.49434 | 998 ft | 80 kts | 25° |
| 2026-04-28 18:41 | 14.92400 | -23.49195 | 772 ft | 83 kts | 25° |
| 2026-04-28 18:42 | 14.92911 | -23.48967 | 543 ft | 78 kts | 23° |
| 2026-04-28 18:42 | 14.93415 | -23.48765 | 392 ft | 76 kts | 24° |
| 2026-04-28 18:42 | 14.93876 | -23.48581 | 324 ft | 63 kts | 27° |
| 2026-04-28 18:42 | 14.94196 | -23.48436 | 324 ft | 35 kts | 22° |
| 2026-04-28 18:43 | 14.94330 | -23.48429 | 325 ft | 19 kts | 309° |
| 2026-04-28 18:43 | 14.94401 | -23.48520 | 327 ft | 11 kts | 351° |
| 2026-04-28 18:43 | 14.94428 | -23.48572 | 327 ft | 12 kts | 289° |
| 2026-04-28 18:43 | 14.94433 | -23.48583 | 327 ft | 0 kts | 293° |